Time;durP1;ratioP1;P1;durP2;ratioP2;P2;SDS_P1;SDS_P2;PMS_P1;PMS_P2;Temp;Humidity;BMP_temperature;BMP_pressure;BME280_temperature;BME280_humidity;BME280_pressure;Samples;Min_cycle;Max_cycle;Signal;HPM_P1;HPM_P2
2022/04/14 00:01:31;;;;;;;11.23;5.33;;;11.90;99.90;;;;;;5056432;28;20257;-65
2022/04/14 00:03:56;;;;;;;8.50;5.10;;;11.90;99.90;;;;;;5055475;28;20172;-65
2022/04/14 00:06:22;;;;;;;6.33;4.73;;;11.90;99.90;;;;;;5055185;28;20608;-66
2022/04/14 00:08:51;;;;;;;7.10;4.37;;;11.90;99.90;;;;;;5054962;28;20168;-65
2022/04/14 00:11:16;;;;;;;8.67;4.30;;;11.80;99.90;;;;;;5055120;28;20563;-66
2022/04/14 00:13:42;;;;;;;5.63;4.63;;;11.80;99.90;;;;;;5054538;28;20254;-67
2022/04/14 00:16:07;;;;;;;7.50;5.07;;;11.90;99.90;;;;;;5054772;28;20157;-66
2022/04/14 00:18:33;;;;;;;8.97;4.70;;;11.80;99.90;;;;;;5055790;28;20204;-66
2022/04/14 00:20:59;;;;;;;10.30;5.53;;;11.80;99.90;;;;;;5055535;28;20218;-67
2022/04/14 00:23:25;;;;;;;9.10;5.37;;;11.80;99.90;;;;;;5054747;28;20164;-65
2022/04/14 00:25:50;;;;;;;7.60;4.97;;;11.80;99.90;;;;;;5055690;28;20164;-65
2022/04/14 00:28:17;;;;;;;10.07;6.03;;;11.80;99.90;;;;;;5056306;28;20164;-64
2022/04/14 00:30:42;;;;;;;7.23;5.33;;;11.80;99.90;;;;;;5055970;28;20163;-67
2022/04/14 00:33:08;;;;;;;10.53;5.70;;;11.80;99.90;;;;;;5056333;28;20164;-66
2022/04/14 00:35:34;;;;;;;12.10;5.73;;;11.70;99.90;;;;;;5056531;28;20160;-66
2022/04/14 00:37:59;;;;;;;7.80;5.47;;;11.80;99.90;;;;;;5055586;28;20267;-65
2022/04/14 00:40:25;;;;;;;11.83;4.73;;;11.70;99.90;;;;;;5055207;28;20235;-66
2022/04/14 00:42:50;;;;;;;8.50;5.67;;;11.80;99.90;;;;;;5054401;28;20258;-64
2022/04/14 00:45:16;;;;;;;8.37;5.20;;;11.90;99.90;;;;;;5054489;28;20161;-65
2022/04/14 00:47:42;;;;;;;8.57;5.23;;;11.80;99.90;;;;;;5036672;28;20179;-65
2022/04/14 00:50:08;;;;;;;11.57;5.50;;;11.80;99.90;;;;;;5055265;28;20242;-66
2022/04/14 00:52:34;;;;;;;8.13;5.93;;;11.70;99.90;;;;;;5053970;28;20172;-65
2022/04/14 00:54:59;;;;;;;8.87;5.20;;;11.70;99.90;;;;;;5054434;28;20171;-66
2022/04/14 00:57:25;;;;;;;7.77;5.30;;;11.70;99.90;;;;;;5035843;28;20187;-65
2022/04/14 00:59:51;;;;;;;7.70;5.47;;;11.80;99.90;;;;;;5054111;28;20199;-66
2022/04/14 01:02:17;;;;;;;9.03;5.63;;;11.80;99.90;;;;;;5053620;28;20188;-66
2022/04/14 01:04:44;;;;;;;13.00;5.03;;;11.90;99.90;;;;;;5054192;28;20179;-69
2022/04/14 01:07:09;;;;;;;12.80;5.03;;;11.90;99.90;;;;;;5054222;28;20192;-68
2022/04/14 01:09:36;;;;;;;8.33;5.33;;;12.00;99.90;;;;;;5054476;28;20199;-65
2022/04/14 01:12:03;;;;;;;8.83;5.33;;;12.00;99.90;;;;;;5055196;28;20168;-65
2022/04/14 01:14:32;;;;;;;9.40;5.00;;;12.00;99.90;;;;;;5054563;28;20507;-65
2022/04/14 01:17:00;;;;;;;10.37;5.40;;;12.00;99.90;;;;;;5055095;28;20165;-67
2022/04/14 01:19:26;;;;;;;9.77;5.33;;;12.00;99.90;;;;;;5058867;28;20179;-67
2022/04/14 01:22:26;;;;;;;9.27;4.83;;;12.00;99.90;;;;;;5058630;28;20222;-66
2022/04/14 01:24:56;;;;;;;7.20;4.97;;;12.00;99.90;;;;;;5055223;28;20177;-68
2022/04/14 01:27:23;;;;;;;9.37;5.10;;;11.80;99.90;;;;;;5057277;28;20186;-66
2022/04/14 01:29:51;;;;;;;7.17;4.90;;;12.00;99.90;;;;;;5053469;28;20641;-66
2022/04/14 01:32:18;;;;;;;8.03;4.63;;;12.00;99.90;;;;;;5035841;28;20211;-65
2022/04/14 01:34:44;;;;;;;8.40;4.90;;;12.00;99.90;;;;;;5052824;28;20195;-65
2022/04/14 01:37:10;;;;;;;5.13;4.33;;;11.90;99.90;;;;;;5035813;28;20211;-65
2022/04/14 01:39:35;;;;;;;11.73;5.80;;;11.80;99.90;;;;;;5053765;28;20175;-64
2022/04/14 01:42:04;;;;;;;6.93;5.07;;;11.70;99.90;;;;;;5053030;28;20196;-65
2022/04/14 01:44:31;;;;;;;7.87;5.63;;;11.60;99.90;;;;;;5053130;28;20263;-66
2022/04/14 01:46:56;;;;;;;7.70;5.37;;;11.60;99.90;;;;;;5053228;28;20231;-66
2022/04/14 01:49:22;;;;;;;9.27;5.50;;;11.60;99.90;;;;;;5054827;28;20164;-66
2022/04/14 01:51:50;;;;;;;7.43;5.30;;;11.60;99.90;;;;;;5057261;28;20164;-64
2022/04/14 01:54:16;;;;;;;6.50;4.87;;;11.60;99.90;;;;;;5056931;28;20239;-66
2022/04/14 01:56:42;;;;;;;6.77;5.17;;;11.60;99.90;;;;;;5057059;28;20253;-66
2022/04/14 01:59:09;;;;;;;7.53;5.60;;;11.60;99.90;;;;;;5056577;28;20206;-66
2022/04/14 02:01:35;;;;;;;7.90;5.53;;;11.60;99.90;;;;;;5056859;28;20197;-66
2022/04/14 02:04:02;;;;;;;8.43;5.47;;;11.60;99.90;;;;;;5056838;28;20262;-64
2022/04/14 02:06:28;;;;;;;9.63;5.63;;;11.60;99.90;;;;;;5056832;28;20247;-67
2022/04/14 02:08:54;;;;;;;12.17;5.57;;;11.50;99.90;;;;;;5056613;28;20238;-65
2022/04/14 02:11:20;;;;;;;7.00;5.63;;;11.50;99.90;;;;;;5057096;28;20175;-67
2022/04/14 02:13:46;;;;;;;7.90;5.37;;;11.40;99.90;;;;;;5057043;28;20165;-65
2022/04/14 02:16:11;;;;;;;7.60;4.93;;;11.30;99.90;;;;;;5056786;28;20214;-66
2022/04/14 02:18:37;;;;;;;6.37;4.93;;;11.30;99.90;;;;;;5038681;28;20172;-67
2022/04/14 02:21:03;;;;;;;8.10;4.60;;;11.30;99.90;;;;;;5056977;28;20203;-65
2022/04/14 02:23:28;;;;;;;8.00;5.20;;;11.20;99.90;;;;;;5056571;28;20584;-66
2022/04/14 02:25:54;;;;;;;10.60;5.17;;;11.20;99.90;;;;;;5038650;28;20633;-66
2022/04/14 02:28:19;;;;;;;6.13;4.67;;;11.20;99.90;;;;;;5056942;28;20167;-65
2022/04/14 02:30:46;;;;;;;8.17;5.50;;;11.20;99.90;;;;;;5056192;28;20164;-66
2022/04/14 02:33:11;;;;;;;6.47;4.60;;;11.20;99.90;;;;;;5056646;28;20653;-65
2022/04/14 02:35:37;;;;;;;8.13;5.50;;;11.20;99.90;;;;;;5056968;28;20172;-65
2022/04/14 02:38:03;;;;;;;8.30;5.40;;;11.20;99.90;;;;;;5057859;28;20293;-65
2022/04/14 02:40:28;;;;;;;6.40;5.03;;;11.20;99.90;;;;;;5059327;28;20165;-65
2022/04/14 02:42:56;;;;;;;8.57;5.67;;;11.10;99.90;;;;;;5057297;28;20218;-64
2022/04/14 02:45:22;;;;;;;8.67;5.63;;;11.20;99.90;;;;;;5058647;28;20169;-65
2022/04/14 02:47:48;;;;;;;8.40;5.23;;;11.30;99.90;;;;;;5058116;28;20197;-67
2022/04/14 02:50:14;;;;;;;7.90;5.50;;;11.10;99.90;;;;;;5057349;28;20171;-66
2022/04/14 02:52:40;;;;;;;7.77;5.00;;;11.10;99.90;;;;;;5056580;28;20188;-65
2022/04/14 02:55:06;;;;;;;7.57;5.73;;;11.00;99.90;;;;;;5057966;28;20164;-66
2022/04/14 02:57:32;;;;;;;7.07;4.70;;;10.90;99.90;;;;;;5057192;28;20223;-64
2022/04/14 02:59:58;;;;;;;9.50;5.33;;;10.90;99.90;;;;;;5056735;28;20254;-66
2022/04/14 03:02:24;;;;;;;8.07;5.57;;;10.80;99.90;;;;;;5057502;28;20192;-65
2022/04/14 03:04:50;;;;;;;8.37;5.40;;;10.80;99.90;;;;;;5055904;28;20191;-66
2022/04/14 03:07:15;;;;;;;9.77;5.70;;;10.90;99.90;;;;;;5057743;28;20627;-66
2022/04/14 03:09:41;;;;;;;9.17;5.67;;;10.80;99.90;;;;;;5056483;28;20164;-67
2022/04/14 03:12:07;;;;;;;11.63;5.80;;;10.80;99.90;;;;;;5055670;28;20175;-67
2022/04/14 03:14:33;;;;;;;8.53;5.73;;;10.80;99.90;;;;;;5055962;28;20203;-64
2022/04/14 03:16:59;;;;;;;14.67;5.10;;;10.80;99.90;;;;;;5055527;28;20199;-65
2022/04/14 03:19:25;;;;;;;11.60;5.23;;;10.70;99.90;;;;;;5055592;28;20157;-65
2022/04/14 03:21:51;;;;;;;8.63;5.30;;;10.60;99.90;;;;;;5038008;28;20207;-65
2022/04/14 03:24:16;;;;;;;13.63;5.37;;;10.60;99.90;;;;;;5038219;28;20609;-65
2022/04/14 03:26:42;;;;;;;7.27;5.50;;;10.50;99.90;;;;;;5055782;28;20165;-66
2022/04/14 03:29:08;;;;;;;15.70;5.83;;;10.50;99.90;;;;;;5055126;28;20167;-65
2022/04/14 03:31:33;;;;;;;9.23;5.50;;;10.40;99.90;;;;;;5055364;28;20657;-64
2022/04/14 03:33:59;;;;;;;7.37;5.23;;;10.40;99.90;;;;;;5037970;28;20182;-65
2022/04/14 03:36:25;;;;;;;8.33;5.53;;;10.40;99.90;;;;;;5055761;28;20225;-64
2022/04/14 03:38:50;;;;;;;8.10;4.47;;;10.40;99.90;;;;;;5055457;28;20243;-67
2022/04/14 03:41:16;;;;;;;7.87;5.03;;;10.40;99.90;;;;;;5055706;28;20258;-65
2022/04/14 03:43:42;;;;;;;11.10;5.97;;;10.40;99.90;;;;;;5055140;28;20169;-65
2022/04/14 03:46:08;;;;;;;11.60;6.30;;;10.20;99.90;;;;;;5055856;28;20164;-66
2022/04/14 03:48:34;;;;;;;10.23;5.93;;;10.10;99.90;;;;;;5055029;28;20157;-65
2022/04/14 03:50:59;;;;;;;8.20;4.90;;;10.10;99.90;;;;;;5055580;28;20221;-65
2022/04/14 03:53:25;;;;;;;8.70;4.93;;;10.10;99.90;;;;;;5054852;28;20173;-64
2022/04/14 03:55:51;;;;;;;7.37;5.20;;;10.00;99.90;;;;;;5054851;28;20509;-66
2022/04/14 03:58:17;;;;;;;13.70;5.33;;;10.10;99.90;;;;;;5054987;28;20519;-66
2022/04/14 04:00:43;;;;;;;10.23;5.37;;;10.10;99.90;;;;;;5054902;28;20165;-65
2022/04/14 04:03:09;;;;;;;7.97;4.90;;;10.10;99.90;;;;;;5054949;28;20619;-66
2022/04/14 04:05:35;;;;;;;7.37;4.67;;;10.00;99.90;;;;;;5054654;28;20635;-65
2022/04/14 04:08:00;;;;;;;8.10;5.07;;;10.00;99.90;;;;;;5055064;28;20156;-65
2022/04/14 04:10:26;;;;;;;10.23;5.10;;;9.80;99.90;;;;;;5055093;28;20545;-66
2022/04/14 04:12:52;;;;;;;8.67;4.90;;;9.80;99.90;;;;;;5054072;28;20187;-67
2022/04/14 04:15:17;;;;;;;12.07;5.20;;;9.80;99.90;;;;;;5055862;28;20172;-65
2022/04/14 04:17:45;;;;;;;7.27;4.90;;;9.80;99.90;;;;;;5054572;28;20176;-65
2022/04/14 04:20:11;;;;;;;6.87;4.37;;;9.80;99.90;;;;;;5054351;28;20618;-66
2022/04/14 04:22:36;;;;;;;9.60;4.97;;;9.80;99.90;;;;;;5053984;28;20282;-66
2022/04/14 04:25:03;;;;;;;6.23;4.47;;;9.90;99.90;;;;;;5053938;28;20239;-65
2022/04/14 04:27:29;;;;;;;8.03;5.70;;;9.90;99.90;;;;;;5054597;28;20300;-65
2022/04/14 04:29:55;;;;;;;7.53;4.90;;;9.90;99.90;;;;;;5054123;28;20519;-65
2022/04/14 04:32:21;;;;;;;9.57;5.13;;;10.00;99.90;;;;;;5055015;28;20164;-65
2022/04/14 04:34:46;;;;;;;10.83;6.07;;;10.00;99.90;;;;;;5054723;28;20216;-65
2022/04/14 04:37:12;;;;;;;8.97;4.87;;;10.00;99.90;;;;;;5053968;28;20195;-65
2022/04/14 04:39:38;;;;;;;8.33;4.93;;;10.00;99.90;;;;;;5054308;28;20227;-65
2022/04/14 04:42:04;;;;;;;7.17;5.47;;;10.10;99.90;;;;;;5036210;28;20307;-64
2022/04/14 04:44:29;;;;;;;8.53;5.10;;;10.10;99.90;;;;;;5054070;28;20168;-65
2022/04/14 04:46:55;;;;;;;7.27;5.20;;;10.10;99.90;;;;;;5054154;28;20234;-65
2022/04/14 04:49:20;;;;;;;15.10;6.47;;;10.10;99.90;;;;;;5053947;28;20173;-64
2022/04/14 04:51:46;;;;;;;7.83;5.60;;;10.10;99.90;;;;;;5053890;28;20643;-66
2022/04/14 04:54:11;;;;;;;11.43;5.33;;;10.10;99.90;;;;;;5053627;28;20171;-66
2022/04/14 04:56:37;;;;;;;8.47;4.90;;;10.10;99.90;;;;;;5054705;28;20487;-65
2022/04/14 04:59:03;;;;;;;9.63;5.77;;;10.10;99.90;;;;;;5037985;28;20187;-65
2022/04/14 05:01:29;;;;;;;10.67;5.70;;;10.10;99.90;;;;;;5054795;28;20188;-65
2022/04/14 05:03:55;;;;;;;10.97;6.07;;;10.10;99.90;;;;;;5036301;28;20179;-65
2022/04/14 05:06:20;;;;;;;9.37;6.63;;;10.20;99.90;;;;;;5053907;28;20206;-64
2022/04/14 05:08:47;;;;;;;9.13;5.57;;;10.30;99.90;;;;;;5053911;28;20172;-64
2022/04/14 05:11:13;;;;;;;16.70;6.27;;;10.30;99.90;;;;;;5053649;28;20157;-66
2022/04/14 05:13:39;;;;;;;10.77;6.23;;;10.40;99.90;;;;;;5053301;28;20199;-65
2022/04/14 05:16:06;;;;;;;10.50;6.00;;;10.50;99.90;;;;;;5053564;28;20522;-64
2022/04/14 05:18:32;;;;;;;12.43;6.13;;;10.50;99.90;;;;;;5054132;28;20164;-64
2022/04/14 05:20:58;;;;;;;11.13;6.17;;;10.60;99.90;;;;;;5053361;28;20161;-65
2022/04/14 05:23:23;;;;;;;10.77;5.63;;;10.70;99.90;;;;;;5053343;28;20241;-64
2022/04/14 05:25:49;;;;;;;12.23;5.60;;;10.80;99.90;;;;;;5053345;28;20172;-64
2022/04/14 05:28:15;;;;;;;13.50;5.93;;;10.80;99.90;;;;;;5053728;28;20164;-65
2022/04/14 05:30:40;;;;;;;9.50;5.57;;;10.90;99.90;;;;;;5035935;28;20505;-65
2022/04/14 05:33:10;;;;;;;9.57;5.87;;;11.00;99.90;;;;;;5053221;28;20310;-67
2022/04/14 05:35:39;;;;;;;9.23;5.90;;;11.00;99.90;;;;;;5053307;28;20511;-66
2022/04/14 05:38:06;;;;;;;9.57;5.57;;;11.10;99.90;;;;;;5052470;28;20576;-67
2022/04/14 05:40:32;;;;;;;7.87;5.67;;;11.10;99.90;;;;;;5074754;28;20163;-67
2022/04/14 05:42:58;;;;;;;9.80;6.03;;;11.30;99.90;;;;;;5073102;28;20199;-65
2022/04/14 05:45:23;;;;;;;19.60;5.97;;;11.30;99.90;;;;;;5073368;28;20205;-67
2022/04/14 05:47:49;;;;;;;10.47;5.47;;;11.50;99.90;;;;;;5073649;28;20186;-65
2022/04/14 05:50:15;;;;;;;12.13;6.50;;;11.60;99.90;;;;;;5073912;28;20594;-66
2022/04/14 05:52:41;;;;;;;10.93;6.10;;;11.70;99.90;;;;;;5073601;28;20256;-65
2022/04/14 05:55:08;;;;;;;11.13;5.80;;;11.90;99.90;;;;;;5073069;28;20172;-66
2022/04/14 05:57:34;;;;;;;14.17;7.13;;;12.00;99.90;;;;;;5073774;28;20175;-65
2022/04/14 06:00:00;;;;;;;13.20;6.47;;;12.00;99.90;;;;;;5073308;28;20160;-65
2022/04/14 06:02:26;;;;;;;13.87;5.77;;;12.10;99.90;;;;;;5073454;28;20195;-65
2022/04/14 06:04:52;;;;;;;11.37;6.07;;;12.30;99.90;;;;;;5073991;28;20469;-65
2022/04/14 06:07:18;;;;;;;9.67;5.87;;;12.30;99.90;;;;;;5075219;28;20164;-65
2022/04/14 06:09:44;;;;;;;8.33;6.00;;;12.40;99.90;;;;;;5073201;28;20175;-66
2022/04/14 06:12:09;;;;;;;10.87;5.60;;;12.50;99.90;;;;;;5074639;28;20512;-65
2022/04/14 06:14:35;;;;;;;11.50;6.33;;;12.50;99.90;;;;;;5076129;28;20164;-66
2022/04/14 06:17:01;;;;;;;12.27;6.00;;;12.60;99.90;;;;;;5078432;28;20179;-66
2022/04/14 06:19:27;;;;;;;13.17;6.03;;;12.80;99.90;;;;;;5082057;28;20159;-66
2022/04/14 06:21:52;;;;;;;11.27;5.93;;;12.80;99.90;;;;;;5078767;28;20623;-66
2022/04/14 06:24:18;;;;;;;10.73;6.00;;;13.00;99.90;;;;;;5075441;28;20176;-70
2022/04/14 06:26:44;;;;;;;10.17;5.53;;;13.10;99.90;;;;;;5076927;28;20159;-65
2022/04/14 06:29:10;;;;;;;14.07;6.63;;;13.10;99.90;;;;;;5077940;28;20171;-66
2022/04/14 06:31:37;;;;;;;16.20;6.13;;;13.20;99.90;;;;;;5080091;28;20171;-65
2022/04/14 06:34:05;;;;;;;15.53;6.37;;;13.30;99.90;;;;;;5078225;28;20170;-65
2022/04/14 06:36:31;;;;;;;11.27;6.50;;;13.30;99.90;;;;;;5080731;28;20258;-65
2022/04/14 06:38:56;;;;;;;11.27;5.83;;;13.50;99.90;;;;;;5064147;28;20334;-64
2022/04/14 06:41:22;;;;;;;10.23;5.70;;;13.60;99.90;;;;;;5057840;28;20274;-66
2022/04/14 06:43:49;;;;;;;11.13;6.07;;;13.70;99.90;;;;;;5058256;28;20485;-65
2022/04/14 06:46:16;;;;;;;11.10;6.00;;;13.80;99.90;;;;;;5057074;28;20154;-65
2022/04/14 06:48:42;;;;;;;13.50;6.13;;;13.80;99.90;;;;;;5057906;28;20164;-66
2022/04/14 06:51:08;;;;;;;13.50;6.87;;;13.90;99.90;;;;;;5056784;28;20168;-66
2022/04/14 06:53:34;;;;;;;10.50;6.40;;;14.00;99.90;;;;;;5039230;28;20275;-64
2022/04/14 06:56:00;;;;;;;12.83;6.37;;;14.10;99.90;;;;;;5056637;28;20236;-66
2022/04/14 06:58:25;;;;;;;10.80;5.73;;;14.20;99.90;;;;;;5057328;28;20550;-66
2022/04/14 07:00:51;;;;;;;12.83;6.10;;;14.30;99.90;;;;;;5059388;28;20172;-65
2022/04/14 07:03:19;;;;;;;11.80;6.90;;;14.40;99.90;;;;;;5061108;28;20191;-65
2022/04/14 07:05:46;;;;;;;9.77;5.93;;;14.40;99.90;;;;;;5058933;28;20165;-65
2022/04/14 07:08:11;;;;;;;11.33;6.47;;;14.50;99.90;;;;;;5039993;28;20176;-66
2022/04/14 07:10:37;;;;;;;16.27;6.30;;;14.50;99.90;;;;;;5057108;28;20203;-65
2022/04/14 07:13:03;;;;;;;11.87;5.90;;;14.60;99.90;;;;;;5055922;28;20173;-64
2022/04/14 07:15:29;;;;;;;11.80;6.50;;;14.80;99.90;;;;;;5055798;28;20169;-64
2022/04/14 07:17:55;;;;;;;10.97;6.60;;;14.90;99.90;;;;;;5055700;28;20230;-65
2022/04/14 07:20:20;;;;;;;8.63;6.67;;;15.00;99.90;;;;;;5056026;28;20642;-65
2022/04/14 07:22:47;;;;;;;13.87;7.47;;;15.10;99.90;;;;;;5055577;28;20293;-64
2022/04/14 07:25:13;;;;;;;12.53;6.93;;;15.00;99.90;;;;;;5055586;28;20160;-65
2022/04/14 07:27:39;;;;;;;12.83;7.23;;;15.10;99.90;;;;;;5055754;28;20255;-64
2022/04/14 07:30:06;;;;;;;11.53;6.27;;;15.20;99.90;;;;;;5055627;28;20192;-64
2022/04/14 07:32:35;;;;;;;10.83;6.83;;;15.20;99.90;;;;;;5055464;28;20514;-66
2022/04/14 07:35:03;;;;;;;12.00;7.53;;;15.40;99.90;;;;;;5037667;28;20180;-65
2022/04/14 07:37:29;;;;;;;14.73;7.27;;;15.50;99.90;;;;;;5056334;28;20251;-65
2022/04/14 07:39:55;;;;;;;12.23;7.40;;;15.50;99.90;;;;;;5056262;28;20180;-64
2022/04/14 07:42:21;;;;;;;13.30;7.13;;;15.50;99.90;;;;;;5055617;28;20539;-67
2022/04/14 07:44:47;;;;;;;14.83;7.93;;;15.50;99.90;;;;;;5055441;28;20190;-64
2022/04/14 07:47:12;;;;;;;14.27;8.40;;;15.60;99.90;;;;;;5054901;28;20215;-65
2022/04/14 07:49:38;;;;;;;16.17;8.20;;;15.70;99.90;;;;;;5055284;28;20172;-65
2022/04/14 07:52:04;;;;;;;12.60;7.57;;;15.80;99.90;;;;;;5055122;28;20195;-66
2022/04/14 07:54:30;;;;;;;12.30;7.87;;;15.80;99.90;;;;;;5055143;28;20210;-65
2022/04/14 07:56:56;;;;;;;14.30;8.40;;;15.70;99.90;;;;;;5054957;28;20173;-65
2022/04/14 07:59:22;;;;;;;22.03;8.23;;;15.90;99.90;;;;;;5055055;28;20286;-65
2022/04/14 08:01:47;;;;;;;24.03;13.47;;;15.80;99.90;;;;;;5055228;28;20669;-65
2022/04/14 08:04:13;;;;;;;32.17;17.70;;;16.10;99.90;;;;;;5051336;28;20196;-66
2022/04/14 08:06:39;;;;;;;19.77;9.77;;;16.20;99.90;;;;;;5050841;28;20238;-65
2022/04/14 08:09:06;;;;;;;16.20;9.73;;;16.10;99.90;;;;;;5054906;28;20528;-66
2022/04/14 08:11:32;;;;;;;15.80;9.87;;;16.10;99.90;;;;;;5054729;28;20639;-65
2022/04/14 08:13:58;;;;;;;24.50;9.63;;;16.20;99.90;;;;;;5054538;28;20160;-66
2022/04/14 08:16:24;;;;;;;18.17;10.43;;;16.30;99.90;;;;;;5054838;28;20214;-67
2022/04/14 08:18:49;;;;;;;24.23;12.63;;;16.50;99.90;;;;;;5054656;28;20597;-65
2022/04/14 08:21:15;;;;;;;21.33;11.73;;;16.50;99.90;;;;;;5054405;28;20156;-65
2022/04/14 08:23:40;;;;;;;17.03;11.03;;;16.50;99.90;;;;;;5054542;28;20628;-65
2022/04/14 08:26:08;;;;;;;17.00;11.43;;;16.50;99.90;;;;;;5055267;28;20192;-64
2022/04/14 08:28:41;;;;;;;19.85;11.30;;;16.50;99.90;;;;;;5056680;28;20278;-65
2022/04/14 08:31:10;;;;;;;18.20;11.23;;;16.60;99.90;;;;;;5053970;28;20167;-65
2022/04/14 08:33:37;;;;;;;21.20;14.33;;;16.80;99.90;;;;;;5054138;28;20251;-65
2022/04/14 08:36:04;;;;;;;27.73;15.73;;;16.80;99.90;;;;;;5053663;28;20179;-65
2022/04/14 08:38:30;;;;;;;41.85;23.52;;;16.80;99.90;;;;;;5054197;28;20234;-64
2022/04/14 08:41:04;;;;;;;45.38;25.13;;;17.00;99.90;;;;;;5053942;28;20160;-65
2022/04/14 08:43:34;;;;;;;23.17;13.65;;;17.20;99.90;;;;;;5054191;28;20211;-64
2022/04/14 08:46:01;;;;;;;24.13;13.07;;;17.20;99.90;;;;;;5054085;28;20164;-65
2022/04/14 08:48:27;;;;;;;18.10;12.18;;;17.20;99.90;;;;;;5053847;28;20157;-65
2022/04/14 08:50:54;;;;;;;25.58;14.27;;;17.20;99.90;;;;;;5054182;28;20196;-64
2022/04/14 08:53:24;;;;;;;20.35;12.10;;;17.40;99.90;;;;;;5053782;28;20161;-65
2022/04/14 08:55:50;;;;;;;23.45;12.68;;;17.50;99.90;;;;;;5053671;28;20164;-64
2022/04/14 08:58:26;;;;;;;20.60;12.20;;;17.40;99.90;;;;;;5035416;28;20172;-65
2022/04/14 09:00:53;;;;;;;33.63;16.38;;;17.10;99.90;;;;;;5053776;28;20504;-64
2022/04/14 09:03:19;;;;;;;27.55;15.52;;;17.00;99.90;;;;;;5053342;28;20195;-65
2022/04/14 09:05:45;;;;;;;37.47;17.25;;;17.30;99.90;;;;;;5053343;28;20161;-65
2022/04/14 09:08:11;;;;;;;25.13;13.20;;;17.30;99.90;;;;;;5054728;28;20163;-67
2022/04/14 09:10:37;;;;;;;20.65;12.95;;;17.30;99.90;;;;;;5054327;28;20205;-65
2022/04/14 09:13:04;;;;;;;19.40;12.70;;;17.40;99.90;;;;;;5053862;28;20251;-64
2022/04/14 09:15:30;;;;;;;23.70;13.48;;;17.30;99.90;;;;;;5053680;28;20606;-64
2022/04/14 09:17:55;;;;;;;25.85;12.85;;;17.60;99.90;;;;;;5054018;28;20162;-64
2022/04/14 09:20:38;;;;;;;19.08;12.18;;;18.00;99.90;;;;;;5035545;28;20175;-65
2022/04/14 09:23:26;;;;;;;21.80;13.18;;;18.00;99.90;;;;;;5053634;28;20513;-65
2022/04/14 09:26:14;;;;;;;21.55;13.00;;;17.90;99.90;;;;;;5053652;28;20176;-66
2022/04/14 09:28:41;;;;;;;29.35;14.00;;;17.80;99.90;;;;;;5036066;28;20176;-64
2022/04/14 09:31:14;;;;;;;20.55;13.05;;;17.70;99.90;;;;;;5053437;28;20171;-65
2022/04/14 09:33:48;;;;;;;24.10;13.30;;;17.60;99.90;;;;;;5053817;28;20475;-64
2022/04/14 09:36:18;;;;;;;22.63;12.98;;;17.80;99.90;;;;;;5053114;28;20269;-65
2022/04/14 09:38:53;;;;;;;18.77;12.25;;;18.00;99.90;;;;;;5053046;28;20240;-66
2022/04/14 09:41:37;;;;;;;21.23;12.23;;;18.10;99.90;;;;;;5036250;28;20184;-65
2022/04/14 09:44:10;;;;;;;19.48;11.45;;;18.20;99.90;;;;;;5053866;28;20234;-64
2022/04/14 09:46:38;;;;;;;19.75;12.57;;;18.30;99.90;;;;;;5053093;28;20206;-66
2022/04/14 09:49:08;;;;;;;21.13;12.95;;;18.30;99.90;;;;;;5035574;28;20180;-65
2022/04/14 09:51:45;;;;;;;21.98;12.80;;;18.30;99.90;;;;;;5054579;28;20168;-65
2022/04/14 09:54:17;;;;;;;23.20;12.82;;;18.40;99.90;;;;;;5058324;28;20164;-65
2022/04/14 09:56:47;;;;;;;16.48;11.43;;;18.50;99.90;;;;;;5035503;28;20260;-65
2022/04/14 09:59:15;;;;;;;21.88;12.07;;;18.50;99.90;;;;;;5052454;28;20565;-66
2022/04/14 10:01:42;;;;;;;18.85;12.52;;;18.40;99.90;;;;;;5052778;28;20624;-64
2022/04/14 10:04:33;;;;;;;18.35;12.27;;;18.40;99.90;;;;;;5053064;28;20176;-65
2022/04/14 10:07:14;;;;;;;22.48;12.82;;;18.80;99.90;;;;;;5053082;28;20247;-64
2022/04/14 10:09:44;;;;;;;21.17;12.35;;;18.90;99.60;;;;;;5053298;28;20251;-66
2022/04/14 10:12:19;;;;;;;21.27;12.10;;;18.90;99.80;;;;;;5057010;28;20251;-64
2022/04/14 10:15:03;;;;;;;17.60;12.02;;;19.00;99.30;;;;;;5056881;28;20160;-64
2022/04/14 10:17:38;;;;;;;23.80;12.68;;;19.00;99.10;;;;;;5056789;28;20163;-65
2022/04/14 10:20:06;;;;;;;18.48;12.50;;;18.90;98.90;;;;;;5057905;28;20167;-64
2022/04/14 10:22:31;;;;;;;18.70;12.77;;;18.70;99.60;;;;;;5060308;28;20246;-65
2022/04/14 10:24:58;;;;;;;20.70;12.30;;;18.90;99.90;;;;;;5060152;28;20249;-65
2022/04/14 10:27:25;;;;;;;18.23;12.55;;;19.00;98.70;;;;;;5058417;28;20172;-65
2022/04/14 10:29:51;;;;;;;21.92;12.75;;;19.20;98.70;;;;;;5059503;28;20214;-67
2022/04/14 10:32:17;;;;;;;19.88;12.13;;;19.20;98.10;;;;;;5059599;28;20168;-65
2022/04/14 10:34:45;;;;;;;20.25;11.63;;;19.40;98.10;;;;;;5059872;28;20164;-65
2022/04/14 10:37:17;;;;;;;17.88;11.95;;;19.50;97.70;;;;;;5057472;28;20240;-65
2022/04/14 10:39:46;;;;;;;20.48;11.75;;;19.70;97.70;;;;;;5056556;28;20164;-65
2022/04/14 10:42:16;;;;;;;18.85;12.10;;;19.90;96.30;;;;;;5056584;28;20192;-67
2022/04/14 10:44:50;;;;;;;18.20;11.73;;;20.00;95.90;;;;;;5056754;28;20168;-66
2022/04/14 10:47:43;;;;;;;18.30;11.23;;;20.10;95.50;;;;;;5056166;28;20156;-65
2022/04/14 10:50:27;;;;;;;19.55;12.88;;;19.90;95.60;;;;;;5056592;28;20209;-65
2022/04/14 10:53:21;;;;;;;21.80;12.30;;;20.20;95.10;;;;;;5056087;28;20160;-65
2022/04/14 10:55:48;;;;;;;17.33;10.88;;;20.10;94.10;;;;;;5055941;28;20153;-65
2022/04/14 10:58:26;;;;;;;21.08;11.63;;;20.00;94.40;;;;;;5056676;28;20559;-66
2022/04/14 11:00:52;;;;;;;17.90;11.60;;;20.10;94.60;;;;;;5055941;28;20190;-66
2022/04/14 11:03:18;;;;;;;19.50;12.13;;;19.90;93.30;;;;;;5056124;28;20306;-64
2022/04/14 11:05:49;;;;;;;18.70;10.45;;;19.80;93.70;;;;;;5056063;28;20176;-65
2022/04/14 11:08:29;;;;;;;17.02;10.68;;;19.60;94.40;;;;;;5056646;28;20201;-66
2022/04/14 11:11:08;;;;;;;19.88;11.27;;;19.30;94.80;;;;;;5076171;28;20160;-69
2022/04/14 11:14:04;;;;;;;19.80;11.57;;;19.30;94.60;;;;;;5076153;28;20207;-66
2022/04/14 11:16:50;;;;;;;18.20;10.90;;;19.50;94.80;;;;;;5077500;28;20165;-65
2022/04/14 11:19:22;;;;;;;21.25;11.50;;;19.60;93.20;;;;;;5078737;28;20222;-65
2022/04/14 11:22:08;;;;;;;25.75;11.15;;;19.90;92.40;;;;;;5075303;28;20202;-65
2022/04/14 11:24:36;;;;;;;18.75;10.60;;;20.10;90.20;;;;;;5078519;28;20473;-68
2022/04/14 11:27:17;;;;;;;18.25;11.43;;;20.10;89.80;;;;;;5076133;28;20160;-65
2022/04/14 11:29:57;;;;;;;19.88;11.30;;;20.10;89.20;;;;;;5058192;28;20254;-66
2022/04/14 11:32:40;;;;;;;16.30;10.52;;;20.20;88.90;;;;;;5075750;28;20490;-65
2022/04/14 11:35:18;;;;;;;21.27;12.30;;;20.00;90.10;;;;;;5057266;28;20254;-67
2022/04/14 11:37:45;;;;;;;18.45;11.20;;;19.70;89.60;;;;;;5075372;28;20372;-67
2022/04/14 11:40:22;;;;;;;13.93;10.30;;;19.90;90.00;;;;;;5075696;28;20172;-66
2022/04/14 11:42:51;;;;;;;14.00;9.95;;;19.90;89.60;;;;;;5075297;28;20561;-67
2022/04/14 11:45:23;;;;;;;12.95;9.50;;;19.80;90.10;;;;;;5075665;28;20658;-67
2022/04/14 11:47:50;;;;;;;15.82;9.43;;;19.80;90.00;;;;;;5075288;28;20587;-69
2022/04/14 11:50:23;;;;;;;16.35;9.60;;;20.10;89.80;;;;;;5075427;28;20552;-67
2022/04/14 11:52:54;;;;;;;15.00;9.70;;;20.40;89.30;;;;;;5075147;28;20537;-64
2022/04/14 11:55:40;;;;;;;13.55;8.65;;;20.50;88.70;;;;;;5075264;28;20265;-66
2022/04/14 11:58:06;;;;;;;12.00;8.27;;;20.90;87.30;;;;;;5075063;28;20603;-67
2022/04/14 12:00:46;;;;;;;14.23;7.82;;;20.70;87.10;;;;;;5075018;28;20194;-68
2022/04/14 12:03:14;;;;;;;15.23;8.55;;;20.50;88.50;;;;;;5074782;28;20286;-67
2022/04/14 12:05:43;;;;;;;11.85;8.75;;;20.40;90.00;;;;;;5074807;28;20163;-65
2022/04/14 12:08:10;;;;;;;12.88;9.38;;;20.30;89.40;;;;;;5074685;28;20240;-66
2022/04/14 12:10:36;;;;;;;12.25;8.77;;;20.50;89.80;;;;;;5075186;28;20171;-65
2022/04/14 12:13:09;;;;;;;10.15;8.07;;;20.50;90.00;;;;;;5074583;28;20166;-66
2022/04/14 12:15:35;;;;;;;16.23;8.10;;;20.70;90.10;;;;;;5074634;28;20152;-65
2022/04/14 12:18:06;;;;;;;10.77;7.80;;;20.80;89.60;;;;;;5056640;28;20202;-67
2022/04/14 12:20:36;;;;;;;14.35;7.50;;;20.80;89.10;;;;;;5075035;28;20167;-66
2022/04/14 12:23:02;;;;;;;10.38;7.55;;;20.80;89.90;;;;;;5074294;28;20198;-65
2022/04/14 12:25:28;;;;;;;9.70;6.68;;;20.60;90.10;;;;;;5074715;28;20180;-65
2022/04/14 12:27:54;;;;;;;9.75;6.78;;;20.60;90.00;;;;;;5074407;28;20220;-66
2022/04/14 12:30:22;;;;;;;9.45;7.10;;;20.50;90.20;;;;;;5074349;28;20159;-65
2022/04/14 12:32:48;;;;;;;13.00;6.88;;;20.80;90.10;;;;;;5073193;28;20246;-65
2022/04/14 12:35:31;;;;;;;10.10;6.20;;;21.10;89.90;;;;;;5073776;28;20160;-66
2022/04/14 12:38:17;;;;;;;9.60;6.43;;;21.40;88.60;;;;;;5073776;28;20226;-67
2022/04/14 12:40:57;;;;;;;8.13;6.20;;;21.40;88.00;;;;;;5073591;28;20183;-66
2022/04/14 12:43:26;;;;;;;8.13;6.00;;;21.50;87.00;;;;;;5075769;28;20577;-66